Time;durP1;ratioP1;P1;durP2;ratioP2;P2;SDS_P1;SDS_P2;PMS_P1;PMS_P2;Temp;Humidity;BMP_temperature;BMP_pressure;BME280_temperature;BME280_humidity;BME280_pressure;Samples;Min_cycle;Max_cycle;Signal;HPM_P1;HPM_P2
2022/01/26 00:05:43;;;;;;;;;;;;;;;;;;2146918;27;19927;-76
2022/01/26 00:06:23;;;;;;;;;;;;;;;;;;2127902;27;20837;-76
2022/01/26 00:07:25;;;;;;;;;;;;;;;;;;2119618;28;20055;-76
2022/01/26 00:08:35;;;;;;;;;;;;;;;;;;2121864;27;19928;-76
2022/01/26 00:10:02;;;;;;;;;;;;;;;;;;2128164;27;20042;-76
2022/01/26 00:11:05;;;;;;;;;;;;;;;;;;2119986;28;20013;-77
2022/01/26 00:12:07;;;;;;;;;;;;;;;;;;2119421;27;20733;-76
2022/01/26 00:13:11;;;;;;;;;;;;;;;;;;2120162;28;19928;-76
2022/01/26 00:14:13;;;;;;;;;;;;;;;;;;2119240;28;19939;-76
2022/01/26 00:15:15;;;;;;;;;;;;;;;;;;2118880;28;19928;-78
2022/01/26 00:16:27;;;;;;;;;;;;;;;;;;2110136;28;20244;-77
2022/01/26 00:17:31;;;;;;;;;;;;;;;;;;2112407;28;19935;-77
2022/01/26 00:18:36;;;;;;;;;;;;;;;;;;2110128;28;19935;-77
2022/01/26 00:19:51;;;;;;;;;;;;;;;;;;2119675;27;19924;-77
2022/01/26 00:20:59;;;;;;;;;;;;;;;;;;2119328;28;19932;-78
2022/01/26 00:22:03;;;;;;;;;;;;;;;;;;2120356;27;20036;-77
2022/01/26 00:27:51;;;;;;;;;;;;;;;;;;2118206;28;19966;-75
2022/01/26 00:29:08;;;;;;;;;;;;;;;;;;2120329;28;19990;-76
2022/01/26 00:38:36;;;;;;;;;;;;;;;;;;2119910;28;19924;-75
2022/01/26 00:39:38;;;;;;;;;;;;;;;;;;2120637;28;20043;-77
2022/01/26 00:40:51;;;;;;;;;;;;;;;;;;2119778;28;19935;-77
2022/01/26 00:41:57;;;;;;;;;;;;;;;;;;2112399;28;19929;-77
2022/01/26 00:43:09;;;;;;;;;;;;;;;;;;2112090;28;19931;-77
2022/01/26 00:44:32;;;;;;;;;;;;;;;;;;2119758;28;19986;-77
2022/01/26 00:45:37;;;;;;;;;;;;;;;;;;2119481;28;19974;-77
2022/01/26 00:46:48;;;;;;;;;;;;;;;;;;2119777;28;20031;-77
2022/01/26 00:47:51;;;;;;;;;;;;;;;;;;2120221;28;19925;-77
2022/01/26 00:48:54;;;;;;;;;;;;;;;;;;2120346;28;19924;-77
2022/01/26 00:50:09;;;;;;;;;;;;;;;;;;2112194;28;20077;-77
2022/01/26 00:51:25;;;;;;;;;;;;;;;;;;2118830;28;19936;-78
2022/01/26 00:52:53;;;;;;;;;;;;;;;;;;2113106;28;19955;-77
2022/01/26 00:54:09;;;;;;;;;;;;;;;;;;2120443;28;19924;-77
2022/01/26 00:55:28;;;;;;;;;;;;;;;;;;2121084;28;19924;-77
2022/01/26 00:56:44;;;;;;;;;;;;;;;;;;2110927;28;19928;-77
2022/01/26 00:58:00;;;;;;;;;;;;;;;;;;2117088;28;19990;-76
2022/01/26 00:59:03;;;;;;;;;;;;;;;;;;2119117;28;19928;-76
2022/01/26 01:00:40;;;;;;;;;;;;;;;;;;2121758;28;19955;-76
2022/01/26 01:01:42;;;;;;;;;;;;;;;;;;2123996;28;19924;-77
2022/01/26 01:02:44;;;;;;;;;;;;;;;;;;2123977;28;19924;-77
2022/01/26 01:03:47;;;;;;;;;;;;;;;;;;2113591;28;19932;-76
2022/01/26 01:04:49;;;;;;;;;;;;;;;;;;2111471;28;20783;-76
2022/01/26 01:07:11;;;;;;;;;;;;;;;;;;2121109;28;19928;-76
2022/01/26 01:08:19;;;;;;;;;;;;;;;;;;2120340;28;20078;-76
2022/01/26 01:09:22;;;;;;;;;;;;;;;;;;2120355;28;19932;-77
2022/01/26 01:10:47;;;;;;;;;;;;;;;;;;2112836;28;19925;-76
2022/01/26 01:12:06;;;;;;;;;;;;;;;;;;2118367;28;20054;-76
2022/01/26 01:13:15;;;;;;;;;;;;;;;;;;2120364;28;20046;-76
2022/01/26 01:14:18;;;;;;;;;;;;;;;;;;2112216;28;19925;-76
2022/01/26 01:15:21;;;;;;;;;;;;;;;;;;2112047;28;19928;-76
2022/01/26 01:16:24;;;;;;;;;;;;;;;;;;2119717;28;20022;-76
2022/01/26 01:17:35;;;;;;;;;;;;;;;;;;2112200;28;19954;-76
2022/01/26 01:27:43;;;;;;;;;;;;;;;;;;2090728;28;19929;-77
2022/01/26 01:29:22;;;;;;;;;;;;;;;;;;2083869;28;19926;-77
2022/01/26 01:30:44;;;;;;;;;;;;;;;;;;2092522;28;20023;-78
2022/01/26 01:32:13;;;;;;;;;;;;;;;;;;2118176;28;19928;-77
2022/01/26 01:33:31;;;;;;;;;;;;;;;;;;2088697;28;19933;-76
2022/01/26 01:34:47;;;;;;;;;;;;;;;;;;2114883;28;19925;-76
2022/01/26 01:35:52;;;;;;;;;;;;;;;;;;2120557;28;19924;-77
2022/01/26 01:37:03;;;;;;;;;;;;;;;;;;2125466;28;20047;-77
2022/01/26 01:38:19;;;;;;;;;;;;;;;;;;2118053;28;19936;-76
2022/01/26 01:39:37;;;;;;;;;;;;;;;;;;2122387;28;19935;-77
2022/01/26 01:40:43;;;;;;;;;;;;;;;;;;2126866;28;20010;-77
2022/01/26 01:41:46;;;;;;;;;;;;;;;;;;2126582;28;19912;-76
2022/01/26 01:43:07;;;;;;;;;;;;;;;;;;2117318;28;20612;-75
2022/01/26 01:44:10;;;;;;;;;;;;;;;;;;2120788;28;19975;-77
2022/01/26 01:45:15;;;;;;;;;;;;;;;;;;2159228;22;19912;-77
2022/01/26 01:46:25;;;;;;;;;;;;;;;;;;2141410;27;19934;-76
2022/01/26 01:47:37;;;;;;;;;;;;;;;;;;2143002;27;19934;-77
2022/01/26 01:48:40;;;;;;;;;;;;;;;;;;2134501;27;19924;-76
2022/01/26 01:50:57;;;;;;;;;;;;;;;;;;1946858;25;19907;-75
2022/01/26 01:52:17;;;;;;;;;;;;;;;;;;2142905;22;20001;-78
2022/01/26 01:53:42;;;;;;;;;;;;;;;;;;2119377;27;19916;-82
2022/01/26 01:55:03;;;;;;;;;;;;;;;;;;2118724;28;20043;-76
2022/01/26 01:56:17;;;;;;;;;;;;;;;;;;2119011;28;19913;-79
2022/01/26 01:57:41;;;;;;;;;;;;;;;;;;2107881;28;19937;-77
2022/01/26 02:00:13;;;;;;;;;;;;;;;;;;2118602;22;19950;-77
2022/01/26 02:01:16;;;;;;;;;;;;;;;;;;2137646;27;19996;-77
2022/01/26 02:02:19;;;;;;;;;;;;;;;;;;2128731;27;19986;-77
2022/01/26 02:03:22;;;;;;;;;;;;;;;;;;2128949;27;20756;-77
2022/01/26 02:04:24;;;;;;;;;;;;;;;;;;2134759;27;19927;-77
2022/01/26 02:05:36;;;;;;;;;;;;;;;;;;2131284;27;20740;-77
2022/01/26 02:06:54;;;;;;;;;;;;;;;;;;2142648;22;19928;-77
2022/01/26 02:07:57;;;;;;;;;;;;;;;;;;2119505;22;19924;-77
2022/01/26 02:09:04;;;;;;;;;;;;;;;;;;2114369;27;20701;-77
2022/01/26 02:10:09;;;;;;;;;;;;;;;;;;2125857;22;20010;-77
2022/01/26 02:11:13;;;;;;;;;;;;;;;;;;2110825;28;19925;-77
2022/01/26 02:12:17;;;;;;;;;;;;;;;;;;2111459;28;20697;-77
2022/01/26 02:13:24;;;;;;;;;;;;;;;;;;2113021;28;19967;-77
2022/01/26 02:14:37;;;;;;;;;;;;;;;;;;2111541;28;19935;-77
2022/01/26 02:16:06;;;;;;;;;;;;;;;;;;2111390;28;19931;-77
2022/01/26 02:17:34;;;;;;;;;;;;;;;;;;2117204;28;20053;-77
2022/01/26 02:51:40;;;;;;;;;;;;;;;;;;2124254;27;29078;-78
2022/01/26 02:54:50;;;;;;;;;;;;;;;;;;2127078;27;19928;-79
2022/01/26 02:56:20;;;;;;;;;;;;;;;;;;2127021;27;19935;-78
2022/01/26 02:59:53;;;;;;;;;;;;;;;;;;2101732;28;19925;-79
2022/01/26 03:06:04;;;;;;;;;;;;;;;;;;2126910;27;19928;-77
2022/01/26 03:10:30;;;;;;;;;;;;;;;;;;1955895;25;20771;-77
2022/01/26 03:11:49;;;;;;;;;;;;;;;;;;2125511;27;19935;-77
2022/01/26 03:13:03;;;;;;;;;;;;;;;;;;2132377;27;19999;-79
2022/01/26 03:14:58;;;;;;;;;;;;;;;;;;2185992;22;20111;-78
2022/01/26 03:16:02;;;;;;;;;;;;;;;;;;2146314;27;19999;-77
2022/01/26 03:19:32;;;;;;;;;;;;;;;;;;2147580;27;19927;-80
2022/01/26 03:20:58;;;;;;;;;;;;;;;;;;2112380;28;20106;-77
2022/01/26 03:33:52;;;;;;;;;;;;;;;;;;2145826;27;19924;-75
2022/01/26 03:35:31;;;;;;;;;;;;;;;;;;2146227;27;19923;-78
2022/01/26 03:37:06;;;;;;;;;;;;;;;;;;2130538;27;19941;-77
2022/01/26 03:38:43;;;;;;;;;;;;;;;;;;2127915;27;20050;-78
2022/01/26 03:40:11;;;;;;;;;;;;;;;;;;2127710;27;19923;-77
2022/01/26 03:41:55;;;;;;;;;;;;;;;;;;2125343;27;20698;-76
2022/01/26 03:43:13;;;;;;;;;;;;;;;;;;2127422;27;19934;-77
2022/01/26 03:44:42;;;;;;;;;;;;;;;;;;2129952;27;20770;-78
2022/01/26 03:46:20;;;;;;;;;;;;;;;;;;2115938;28;19935;-77
2022/01/26 03:48:19;;;;;;;;;;;;;;;;;;2107765;28;19925;-77
2022/01/26 03:50:12;;;;;;;;;;;;;;;;;;2107930;28;19924;-77
2022/01/26 03:51:57;;;;;;;;;;;;;;;;;;2114925;28;19928;-76
2022/01/26 03:53:21;;;;;;;;;;;;;;;;;;2115067;28;19932;-76
2022/01/26 03:54:26;;;;;;;;;;;;;;;;;;2133291;22;20016;-76
2022/01/26 03:55:28;;;;;;;;;;;;;;;;;;2132981;27;20658;-76
2022/01/26 03:56:31;;;;;;;;;;;;;;;;;;2125161;28;20852;-76
2022/01/26 03:58:38;;;;;;;;;;;;;;;;;;2130333;22;19924;-76
2022/01/26 03:59:41;;;;;;;;;;;;;;;;;;2135156;22;19965;-76
2022/01/26 04:02:15;;;;;;;;;;;;;;;;;;1950191;25;19934;-76
2022/01/26 04:03:17;;;;;;;;;;;;;;;;;;2128564;27;19923;-77
2022/01/26 04:05:31;;;;;;;;;;;;;;;;;;1778445;25;19924;-77
2022/01/26 04:06:39;;;;;;;;;;;;;;;;;;2141925;27;19924;-77
2022/01/26 04:07:46;;;;;;;;;;;;;;;;;;2143893;27;19957;-77
2022/01/26 04:09:16;;;;;;;;;;;;;;;;;;2140404;27;19924;-77
2022/01/26 04:11:52;;;;;;;;;;;;;;;;;;2137881;27;20152;-76
2022/01/26 04:13:09;;;;;;;;;;;;;;;;;;2141290;27;19932;-77
2022/01/26 04:14:33;;;;;;;;;;;;;;;;;;2137459;27;19927;-76
2022/01/26 04:15:44;;;;;;;;;;;;;;;;;;2129030;27;19935;-77
2022/01/26 04:17:09;;;;;;;;;;;;;;;;;;2126618;27;19995;-76
2022/01/26 04:18:20;;;;;;;;;;;;;;;;;;2135302;22;19928;-76
2022/01/26 04:19:24;;;;;;;;;;;;;;;;;;2131077;27;20000;-76
2022/01/26 04:20:46;;;;;;;;;;;;;;;;;;2131624;27;19934;-76
2022/01/26 04:23:13;;;;;;;;;;;;;;;;;;2151690;27;19907;-76
2022/01/26 04:24:44;;;;;;;;;;;;;;;;;;2150683;27;19923;-76
2022/01/26 04:26:14;;;;;;;;;;;;;;;;;;2136434;27;19931;-76
2022/01/26 04:27:42;;;;;;;;;;;;;;;;;;2148185;27;20752;-76
2022/01/26 04:29:08;;;;;;;;;;;;;;;;;;2147270;27;19923;-76
2022/01/26 04:30:13;;;;;;;;;;;;;;;;;;2149919;27;19927;-77
2022/01/26 04:31:21;;;;;;;;;;;;;;;;;;2151183;27;19930;-76
2022/01/26 04:32:47;;;;;;;;;;;;;;;;;;2151244;27;19961;-77
2022/01/26 04:34:03;;;;;;;;;;;;;;;;;;2152625;27;19930;-76
2022/01/26 04:35:26;;;;;;;;;;;;;;;;;;2140274;27;19927;-76
2022/01/26 04:37:02;;;;;;;;;;;;;;;;;;2141702;27;20686;-77
2022/01/26 04:38:34;;;;;;;;;;;;;;;;;;2130032;27;19924;-76
2022/01/26 04:40:12;;;;;;;;;;;;;;;;;;2141320;27;19931;-76
2022/01/26 04:41:41;;;;;;;;;;;;;;;;;;2136602;27;19927;-76
2022/01/26 04:43:19;;;;;;;;;;;;;;;;;;2139698;27;20038;-77
2022/01/26 04:44:58;;;;;;;;;;;;;;;;;;2143063;27;19927;-76
2022/01/26 04:46:38;;;;;;;;;;;;;;;;;;2137360;27;19923;-77
2022/01/26 04:47:58;;;;;;;;;;;;;;;;;;2143737;27;19923;-76
2022/01/26 04:49:05;;;;;;;;;;;;;;;;;;2143882;27;19912;-76
2022/01/26 04:50:08;;;;;;;;;;;;;;;;;;2134300;27;20019;-76
2022/01/26 04:51:10;;;;;;;;;;;;;;;;;;2135741;27;19907;-76
2022/01/26 04:52:15;;;;;;;;;;;;;;;;;;2135882;27;19927;-76
2022/01/26 04:53:30;;;;;;;;;;;;;;;;;;2144104;27;19974;-76
2022/01/26 04:54:50;;;;;;;;;;;;;;;;;;2144260;27;19930;-77
2022/01/26 04:56:05;;;;;;;;;;;;;;;;;;2142862;27;20034;-76
2022/01/26 04:57:09;;;;;;;;;;;;;;;;;;2143840;27;20037;-77
2022/01/26 04:58:12;;;;;;;;;;;;;;;;;;2135595;27;19924;-76
2022/01/26 04:59:15;;;;;;;;;;;;;;;;;;2135367;27;19930;-77
2022/01/26 05:00:17;;;;;;;;;;;;;;;;;;2143870;27;19927;-76
2022/01/26 05:01:21;;;;;;;;;;;;;;;;;;2135215;27;19923;-75
2022/01/26 05:02:28;;;;;;;;;;;;;;;;;;2135493;27;20005;-76
2022/01/26 05:03:29;;;;;;;;;;;;;;;;;;2127570;27;19932;-75
2022/01/26 05:04:31;;;;;;;;;;;;;;;;;;2123991;28;19929;-78
2022/01/26 05:05:38;;;;;;;;;;;;;;;;;;2127900;27;19924;-77
2022/01/26 05:06:49;;;;;;;;;;;;;;;;;;2126458;28;19916;-78
2022/01/26 05:07:54;;;;;;;;;;;;;;;;;;2127216;27;19931;-78
2022/01/26 05:09:02;;;;;;;;;;;;;;;;;;2114668;27;20101;-78
2022/01/26 05:10:44;;;;;;;;;;;;;;;;;;2124586;27;19915;-78
2022/01/26 05:12:20;;;;;;;;;;;;;;;;;;2110201;28;19929;-78
2022/01/26 05:14:08;;;;;;;;;;;;;;;;;;2134930;27;19920;-78
2022/01/26 05:15:44;;;;;;;;;;;;;;;;;;2133440;27;19928;-77
2022/01/26 05:17:03;;;;;;;;;;;;;;;;;;2125775;28;19948;-78
2022/01/26 05:18:41;;;;;;;;;;;;;;;;;;2130883;27;19927;-77
2022/01/26 05:20:00;;;;;;;;;;;;;;;;;;2120414;28;19923;-78
2022/01/26 05:21:19;;;;;;;;;;;;;;;;;;2132484;27;19907;-77
2022/01/26 05:22:41;;;;;;;;;;;;;;;;;;2132041;27;19927;-78
2022/01/26 05:23:57;;;;;;;;;;;;;;;;;;2107755;28;19940;-78
2022/01/26 05:25:30;;;;;;;;;;;;;;;;;;2126207;27;19924;-78
2022/01/26 05:27:13;;;;;;;;;;;;;;;;;;2134784;27;19966;-79
2022/01/26 05:28:51;;;;;;;;;;;;;;;;;;2117075;27;19913;-77
2022/01/26 05:30:24;;;;;;;;;;;;;;;;;;2119273;28;19990;-77
2022/01/26 05:31:48;;;;;;;;;;;;;;;;;;2127098;27;19928;-78
2022/01/26 05:33:10;;;;;;;;;;;;;;;;;;2095704;28;19925;-77
2022/01/26 05:34:51;;;;;;;;;;;;;;;;;;2098997;28;19925;-77
2022/01/26 05:36:16;;;;;;;;;;;;;;;;;;2078593;28;19929;-78
2022/01/26 05:37:47;;;;;;;;;;;;;;;;;;2098450;28;19980;-77
2022/01/26 05:39:13;;;;;;;;;;;;;;;;;;2136581;27;19930;-77
2022/01/26 05:40:29;;;;;;;;;;;;;;;;;;2128953;27;19928;-76
2022/01/26 05:41:40;;;;;;;;;;;;;;;;;;2130546;27;19928;-76
2022/01/26 05:42:50;;;;;;;;;;;;;;;;;;2124527;27;19924;-74
2022/01/26 05:43:55;;;;;;;;;;;;;;;;;;2123626;27;20916;-78
2022/01/26 05:45:03;;;;;;;;;;;;;;;;;;2116887;27;19932;-78
2022/01/26 05:46:18;;;;;;;;;;;;;;;;;;2118560;27;19928;-79
2022/01/26 05:47:21;;;;;;;;;;;;;;;;;;2125594;27;19972;-76
2022/01/26 05:48:23;;;;;;;;;;;;;;;;;;2126034;27;19971;-76
2022/01/26 05:49:25;;;;;;;;;;;;;;;;;;2131408;22;20038;-77
2022/01/26 05:50:28;;;;;;;;;;;;;;;;;;2114395;28;19932;-78
2022/01/26 05:51:33;;;;;;;;;;;;;;;;;;2112965;28;19931;-77
2022/01/26 05:52:36;;;;;;;;;;;;;;;;;;2109417;28;20039;-77
2022/01/26 05:53:38;;;;;;;;;;;;;;;;;;2109234;28;20604;-75
2022/01/26 05:54:40;;;;;;;;;;;;;;;;;;2118288;27;19934;-75
2022/01/26 05:55:43;;;;;;;;;;;;;;;;;;2119750;27;19928;-76
2022/01/26 05:56:47;;;;;;;;;;;;;;;;;;2123154;27;19924;-76
2022/01/26 05:57:50;;;;;;;;;;;;;;;;;;2120119;27;20781;-76
2022/01/26 05:59:07;;;;;;;;;;;;;;;;;;2121883;27;19928;-78
2022/01/26 06:00:24;;;;;;;;;;;;;;;;;;2115160;27;19924;-79
2022/01/26 06:01:41;;;;;;;;;;;;;;;;;;2114221;28;19927;-79
2022/01/26 06:02:57;;;;;;;;;;;;;;;;;;2119173;22;19935;-77
2022/01/26 06:04:00;;;;;;;;;;;;;;;;;;2116735;27;19979;-77
2022/01/26 06:05:05;;;;;;;;;;;;;;;;;;2111172;28;19959;-78
2022/01/26 06:06:08;;;;;;;;;;;;;;;;;;2115574;28;20062;-76
2022/01/26 06:07:11;;;;;;;;;;;;;;;;;;2122459;27;20830;-76
2022/01/26 06:08:15;;;;;;;;;;;;;;;;;;2106995;28;19928;-77
2022/01/26 06:09:20;;;;;;;;;;;;;;;;;;2109412;28;20130;-77
2022/01/26 06:10:25;;;;;;;;;;;;;;;;;;2102862;28;20622;-78
2022/01/26 06:11:29;;;;;;;;;;;;;;;;;;2098716;28;19928;-77
2022/01/26 06:12:37;;;;;;;;;;;;;;;;;;2107715;28;19936;-77
2022/01/26 06:13:39;;;;;;;;;;;;;;;;;;2108147;28;19936;-78
2022/01/26 06:14:41;;;;;;;;;;;;;;;;;;2111170;28;19928;-77
2022/01/26 06:15:44;;;;;;;;;;;;;;;;;;2119049;27;19935;-77
2022/01/26 06:16:50;;;;;;;;;;;;;;;;;;2115496;28;19928;-77
2022/01/26 06:17:53;;;;;;;;;;;;;;;;;;2105626;28;19936;-77
2022/01/26 06:18:55;;;;;;;;;;;;;;;;;;2112419;28;19932;-77
2022/01/26 06:19:58;;;;;;;;;;;;;;;;;;2125362;27;20066;-77
2022/01/26 06:21:00;;;;;;;;;;;;;;;;;;2124942;27;19923;-77
2022/01/26 06:22:03;;;;;;;;;;;;;;;;;;2117485;28;19939;-77
2022/01/26 06:23:06;;;;;;;;;;;;;;;;;;2109725;28;20002;-78
2022/01/26 06:24:10;;;;;;;;;;;;;;;;;;2105991;28;20037;-77
2022/01/26 06:25:16;;;;;;;;;;;;;;;;;;2114069;27;19924;-76
2022/01/26 06:26:23;;;;;;;;;;;;;;;;;;2126190;27;20076;-77
2022/01/26 06:27:27;;;;;;;;;;;;;;;;;;2122826;27;19953;-76
2022/01/26 06:28:30;;;;;;;;;;;;;;;;;;2123863;27;20733;-76
2022/01/26 06:29:34;;;;;;;;;;;;;;;;;;2106435;28;20001;-77
2022/01/26 06:30:37;;;;;;;;;;;;;;;;;;2111610;28;19925;-78
2022/01/26 06:31:41;;;;;;;;;;;;;;;;;;2118026;27;19928;-76
2022/01/26 06:32:47;;;;;;;;;;;;;;;;;;2116295;28;19924;-76
2022/01/26 06:33:49;;;;;;;;;;;;;;;;;;2111265;28;19929;-78
2022/01/26 06:34:54;;;;;;;;;;;;;;;;;;2117228;28;20051;-76
2022/01/26 06:35:59;;;;;;;;;;;;;;;;;;2120246;27;20052;-76
2022/01/26 06:37:04;;;;;;;;;;;;;;;;;;2118914;28;20050;-76
2022/01/26 06:38:09;;;;;;;;;;;;;;;;;;2110242;28;19924;-74
2022/01/26 06:39:12;;;;;;;;;;;;;;;;;;2111055;28;19987;-75
2022/01/26 06:40:16;;;;;;;;;;;;;;;;;;2110166;28;20686;-77
2022/01/26 06:41:25;;;;;;;;;;;;;;;;;;2121431;27;19924;-77
2022/01/26 06:42:35;;;;;;;;;;;;;;;;;;2125514;27;19935;-77
2022/01/26 06:43:51;;;;;;;;;;;;;;;;;;2108046;28;20797;-76
2022/01/26 06:45:16;;;;;;;;;;;;;;;;;;2108588;28;19967;-78
2022/01/26 06:46:32;;;;;;;;;;;;;;;;;;2116884;27;19932;-78
2022/01/26 06:47:53;;;;;;;;;;;;;;;;;;2114346;28;19936;-76
2022/01/26 06:50:23;;;;;;;;;;;;;;;;;;2122742;27;19935;-77
2022/01/26 06:51:29;;;;;;;;;;;;;;;;;;2110048;28;19929;-75
2022/01/26 06:52:36;;;;;;;;;;;;;;;;;;2111048;28;19932;-75
2022/01/26 06:53:46;;;;;;;;;;;;;;;;;;2109720;28;19925;-76
2022/01/26 06:55:09;;;;;;;;;;;;;;;;;;2113861;28;19930;-75
2022/01/26 06:56:31;;;;;;;;;;;;;;;;;;2116690;28;19931;-76
2022/01/26 06:57:54;;;;;;;;;;;;;;;;;;2118923;28;20704;-76
2022/01/26 06:59:10;;;;;;;;;;;;;;;;;;2107019;28;19928;-76
2022/01/26 07:00:35;;;;;;;;;;;;;;;;;;2113961;28;20951;-79
2022/01/26 07:01:50;;;;;;;;;;;;;;;;;;2116840;28;20705;-77
2022/01/26 07:03:00;;;;;;;;;;;;;;;;;;2109236;28;19936;-76
2022/01/26 07:04:03;;;;;;;;;;;;;;;;;;2111985;28;19928;-79
2022/01/26 07:05:05;;;;;;;;;;;;;;;;;;2122408;27;19930;-79
2022/01/26 07:06:14;;;;;;;;;;;;;;;;;;2120364;27;19932;-63
2022/01/26 07:07:19;;;;;;;;;;;;;;;;;;2105686;28;19932;-62
2022/01/26 07:08:25;;;;;;;;;;;;;;;;;;2103842;28;20079;-66
2022/01/26 07:09:31;;;;;;;;;;;;;;;;;;2116615;28;20864;-63
2022/01/26 07:10:37;;;;;;;;;;;;;;;;;;2108460;28;19940;-63
2022/01/26 07:11:45;;;;;;;;;;;;;;;;;;2105243;28;20016;-69
2022/01/26 07:12:49;;;;;;;;;;;;;;;;;;2109534;28;20114;-64
2022/01/26 07:13:59;;;;;;;;;;;;;;;;;;2109424;28;19931;-68
2022/01/26 07:21:42;;;;;;;;;;;;;;;;;;2117886;28;20717;-67
2022/01/26 07:22:53;;;;;;;;;;;;;;;;;;2117113;28;19935;-66
2022/01/26 07:24:00;;;;;;;;;;;;;;;;;;2114467;28;19932;-68
2022/01/26 07:25:02;;;;;;;;;;;;;;;;;;2113623;28;19931;-71
2022/01/26 07:26:09;;;;;;;;;;;;;;;;;;2112722;28;20723;-70
2022/01/26 07:27:15;;;;;;;;;;;;;;;;;;2109604;28;20002;-66
2022/01/26 07:28:21;;;;;;;;;;;;;;;;;;2102015;28;19925;-63
2022/01/26 07:29:27;;;;;;;;;;;;;;;;;;2104162;28;20824;-64
2022/01/26 07:30:35;;;;;;;;;;;;;;;;;;2119300;27;19924;-68
2022/01/26 07:31:47;;;;;;;;;;;;;;;;;;2115134;27;20634;-64
2022/01/26 07:32:51;;;;;;;;;;;;;;;;;;2102560;28;20042;-62
2022/01/26 07:33:57;;;;;;;;;;;;;;;;;;2108405;28;20054;-64
2022/01/26 07:35:01;;;;;;;;;;;;;;;;;;2113974;27;19972;-66
2022/01/26 07:36:05;;;;;;;;;;;;;;;;;;2125020;27;19950;-64
2022/01/26 07:37:12;;;;;;;;;;;;;;;;;;2105306;28;20018;-66
2022/01/26 07:38:17;;;;;;;;;;;;;;;;;;2109532;28;20738;-67
2022/01/26 07:39:32;;;;;;;;;;;;;;;;;;2103225;28;19937;-64
2022/01/26 07:40:39;;;;;;;;;;;;;;;;;;2105625;28;19925;-71
2022/01/26 07:41:43;;;;;;;;;;;;;;;;;;2102329;28;19929;-65
2022/01/26 07:42:47;;;;;;;;;;;;;;;;;;2100332;28;19929;-67
2022/01/26 07:43:51;;;;;;;;;;;;;;;;;;2101861;28;19971;-68
2022/01/26 07:44:55;;;;;;;;;;;;;;;;;;2117287;28;20777;-67
2022/01/26 07:45:59;;;;;;;;;;;;;;;;;;2110959;28;19998;-69
2022/01/26 07:47:02;;;;;;;;;;;;;;;;;;2110344;28;19925;-64
2022/01/26 07:48:05;;;;;;;;;;;;;;;;;;2111453;28;19928;-69
2022/01/26 07:49:07;;;;;;;;;;;;;;;;;;2112883;28;19928;-65
2022/01/26 07:50:12;;;;;;;;;;;;;;;;;;2117410;28;20862;-65
2022/01/26 07:51:15;;;;;;;;;;;;;;;;;;2100410;28;19929;-64
2022/01/26 07:52:19;;;;;;;;;;;;;;;;;;2107790;28;20035;-68
2022/01/26 07:53:23;;;;;;;;;;;;;;;;;;2115102;28;20001;-65
2022/01/26 07:54:25;;;;;;;;;;;;;;;;;;2115101;28;19939;-66
2022/01/26 07:55:27;;;;;;;;;;;;;;;;;;2108649;28;19928;-67
2022/01/26 07:56:30;;;;;;;;;;;;;;;;;;2104715;28;20047;-67
2022/01/26 07:57:33;;;;;;;;;;;;;;;;;;2108606;28;19932;-66
2022/01/26 07:58:35;;;;;;;;;;;;;;;;;;2110103;28;20648;-71
2022/01/26 07:59:39;;;;;;;;;;;;;;;;;;2105865;28;19929;-68
2022/01/26 08:00:41;;;;;;;;;;;;;;;;;;2108324;28;19976;-61
2022/01/26 08:01:44;;;;;;;;;;;;;;;;;;2108534;28;19974;-66
2022/01/26 08:02:46;;;;;;;;;;;;;;;;;;2117763;28;19935;-64
2022/01/26 08:03:48;;;;;;;;;;;;;;;;;;2113079;28;19928;-67
2022/01/26 08:04:50;;;;;;;;;;;;;;;;;;2101136;28;20022;-67
2022/01/26 08:05:52;;;;;;;;;;;;;;;;;;2100208;28;19939;-64
2022/01/26 08:06:55;;;;;;;;;;;;;;;;;;2108840;28;20046;-63
2022/01/26 08:07:58;;;;;;;;;;;;;;;;;;2109516;28;19972;-67
2022/01/26 08:09:01;;;;;;;;;;;;;;;;;;2108738;28;20820;-65
2022/01/26 08:10:03;;;;;;;;;;;;;;;;;;2117615;28;20037;-69
2022/01/26 08:11:06;;;;;;;;;;;;;;;;;;2100676;28;20067;-66
2022/01/26 08:12:09;;;;;;;;;;;;;;;;;;2099713;28;19933;-68
2022/01/26 08:13:12;;;;;;;;;;;;;;;;;;2100119;28;20735;-66
2022/01/26 08:14:15;;;;;;;;;;;;;;;;;;2107029;28;19928;-65
2022/01/26 08:15:17;;;;;;;;;;;;;;;;;;2105813;28;20078;-66
2022/01/26 08:16:20;;;;;;;;;;;;;;;;;;2105482;28;19932;-67
2022/01/26 08:17:22;;;;;;;;;;;;;;;;;;2102541;28;19928;-67
2022/01/26 08:18:24;;;;;;;;;;;;;;;;;;2109132;28;20781;-66
2022/01/26 08:19:27;;;;;;;;;;;;;;;;;;2107282;28;20046;-65
2022/01/26 08:20:29;;;;;;;;;;;;;;;;;;2109232;28;20035;-67
2022/01/26 08:21:32;;;;;;;;;;;;;;;;;;2112619;28;20817;-70
2022/01/26 08:22:35;;;;;;;;;;;;;;;;;;2108552;28;19931;-65
2022/01/26 08:23:42;;;;;;;;;;;;;;;;;;2102673;28;19936;-68
2022/01/26 08:24:44;;;;;;;;;;;;;;;;;;2112405;28;20752;-67
2022/01/26 08:25:47;;;;;;;;;;;;;;;;;;2108542;28;19928;-64
2022/01/26 08:26:50;;;;;;;;;;;;;;;;;;2108902;28;19924;-65
2022/01/26 08:28:00;;;;;;;;;;;;;;;;;;2108806;28;19924;-67
2022/01/26 08:29:06;;;;;;;;;;;;;;;;;;2108952;28;19936;-66
2022/01/26 08:30:15;;;;;;;;;;;;;;;;;;2106222;28;20126;-66
2022/01/26 08:31:17;;;;;;;;;;;;;;;;;;2103634;28;20809;-65
2022/01/26 08:32:20;;;;;;;;;;;;;;;;;;2113428;28;19931;-65
2022/01/26 08:33:22;;;;;;;;;;;;;;;;;;2117838;28;19932;-67
2022/01/26 08:34:24;;;;;;;;;;;;;;;;;;2114580;28;20684;-68
2022/01/26 08:35:26;;;;;;;;;;;;;;;;;;2106901;28;20043;-68
2022/01/26 08:36:28;;;;;;;;;;;;;;;;;;2107926;28;19975;-65
2022/01/26 08:37:31;;;;;;;;;;;;;;;;;;2108580;28;20898;-63
2022/01/26 08:38:33;;;;;;;;;;;;;;;;;;2105146;28;20035;-63
2022/01/26 08:39:35;;;;;;;;;;;;;;;;;;2100988;28;19999;-65
2022/01/26 08:40:38;;;;;;;;;;;;;;;;;;2108617;28;20022;-66
2022/01/26 08:41:42;;;;;;;;;;;;;;;;;;2109266;28;19970;-67
2022/01/26 08:42:44;;;;;;;;;;;;;;;;;;2100554;28;19936;-67
2022/01/26 08:43:46;;;;;;;;;;;;;;;;;;2100063;28;19929;-65
2022/01/26 08:44:48;;;;;;;;;;;;;;;;;;2100050;28;19935;-68
2022/01/26 08:45:50;;;;;;;;;;;;;;;;;;2108421;28;20881;-67
2022/01/26 08:46:52;;;;;;;;;;;;;;;;;;2103657;28;20058;-66
2022/01/26 08:47:54;;;;;;;;;;;;;;;;;;2099333;28;20747;-64
2022/01/26 08:48:57;;;;;;;;;;;;;;;;;;2108170;28;19924;-66
2022/01/26 08:49:59;;;;;;;;;;;;;;;;;;2109731;28;20028;-67
2022/01/26 08:51:02;;;;;;;;;;;;;;;;;;2101396;28;19924;-67
2022/01/26 08:52:04;;;;;;;;;;;;;;;;;;2100505;28;19998;-66
2022/01/26 08:53:06;;;;;;;;;;;;;;;;;;2099838;28;20055;-65
2022/01/26 08:54:10;;;;;;;;;;;;;;;;;;2099804;28;19935;-65
2022/01/26 08:55:13;;;;;;;;;;;;;;;;;;2114433;28;20730;-69
2022/01/26 08:56:15;;;;;;;;;;;;;;;;;;2117475;28;19928;-67
2022/01/26 08:57:17;;;;;;;;;;;;;;;;;;2100110;28;20786;-65
2022/01/26 08:58:20;;;;;;;;;;;;;;;;;;2107711;28;19928;-66
2022/01/26 08:59:22;;;;;;;;;;;;;;;;;;2104958;28;20806;-69
2022/01/26 09:00:24;;;;;;;;;;;;;;;;;;2113119;28;19963;-69
2022/01/26 09:01:26;;;;;;;;;;;;;;;;;;2100199;28;19932;-68
2022/01/26 09:02:28;;;;;;;;;;;;;;;;;;2103197;28;20054;-64
2022/01/26 09:03:34;;;;;;;;;;;;;;;;;;2111737;28;19929;-65
2022/01/26 09:04:36;;;;;;;;;;;;;;;;;;2101517;28;19987;-64
2022/01/26 09:05:38;;;;;;;;;;;;;;;;;;2104886;28;20090;-70
2022/01/26 09:06:51;;;;;;;;;;;;;;;;;;2117781;28;20079;-71
2022/01/26 09:07:56;;;;;;;;;;;;;;;;;;2116893;28;19932;-70
2022/01/26 09:09:04;;;;;;;;;;;;;;;;;;2110390;28;20024;-73
2022/01/26 09:10:06;;;;;;;;;;;;;;;;;;2109338;28;19975;-72
2022/01/26 09:11:09;;;;;;;;;;;;;;;;;;2114003;28;19924;-69
2022/01/26 09:12:11;;;;;;;;;;;;;;;;;;2110922;28;19928;-67
2022/01/26 09:13:13;;;;;;;;;;;;;;;;;;2103425;28;19928;-66
2022/01/26 09:14:19;;;;;;;;;;;;;;;;;;2102269;28;22164;-70
2022/01/26 09:15:27;;;;;;;;;;;;;;;;;;2100553;28;19936;-70
2022/01/26 09:16:30;;;;;;;;;;;;;;;;;;2104514;28;20011;-65
2022/01/26 09:17:33;;;;;;;;;;;;;;;;;;2117243;28;19928;-68
2022/01/26 09:19:48;;;;;;;;;;;;;;;;;;2113443;28;19928;-67
2022/01/26 09:20:50;;;;;;;;;;;;;;;;;;2101451;28;19929;-69
2022/01/26 09:21:52;;;;;;;;;;;;;;;;;;2106195;28;19924;-68
2022/01/26 09:22:54;;;;;;;;;;;;;;;;;;2108751;28;19925;-69
2022/01/26 09:23:57;;;;;;;;;;;;;;;;;;2111047;28;20766;-64
2022/01/26 09:24:58;;;;;;;;;;;;;;;;;;2103107;28;19976;-68
2022/01/26 09:26:00;;;;;;;;;;;;;;;;;;2102946;28;20119;-68
2022/01/26 09:27:02;;;;;;;;;;;;;;;;;;2104049;28;20001;-69
2022/01/26 09:28:05;;;;;;;;;;;;;;;;;;2104853;28;19928;-66
2022/01/26 09:29:08;;;;;;;;;;;;;;;;;;2105596;28;20148;-70
2022/01/26 09:30:10;;;;;;;;;;;;;;;;;;2109441;28;19986;-66
2022/01/26 09:31:12;;;;;;;;;;;;;;;;;;2111091;28;19928;-69
2022/01/26 09:32:15;;;;;;;;;;;;;;;;;;2099091;28;19925;-70
2022/01/26 09:33:17;;;;;;;;;;;;;;;;;;2100542;28;20183;-65
2022/01/26 09:34:19;;;;;;;;;;;;;;;;;;2112136;28;19958;-69
2022/01/26 09:35:22;;;;;;;;;;;;;;;;;;2109236;28;19960;-68
2022/01/26 09:36:24;;;;;;;;;;;;;;;;;;2107910;28;19936;-67
2022/01/26 09:37:26;;;;;;;;;;;;;;;;;;2107434;28;19932;-69
2022/01/26 09:38:29;;;;;;;;;;;;;;;;;;2117304;28;19973;-66
2022/01/26 09:39:31;;;;;;;;;;;;;;;;;;2116825;28;19928;-65
2022/01/26 09:40:33;;;;;;;;;;;;;;;;;;2116037;28;19928;-65
2022/01/26 09:41:35;;;;;;;;;;;;;;;;;;2109882;28;19925;-65
2022/01/26 09:42:37;;;;;;;;;;;;;;;;;;2106509;28;20607;-64
2022/01/26 09:43:39;;;;;;;;;;;;;;;;;;2107380;28;20745;-66
2022/01/26 09:44:40;;;;;;;;;;;;;;;;;;2105327;28;19929;-68